sensor_id;sensor_type;location;lat;lon;timestamp;P1;durP1;ratioP1;P2;durP2;ratioP2
15246;SDS011;7726;48.820;9.248;2023-02-28T00:01:07;2.23;;;1.77;;
15246;SDS011;7726;48.820;9.248;2023-02-28T00:03:34;2.87;;;2.10;;
15246;SDS011;7726;48.820;9.248;2023-02-28T00:06:01;4.47;;;1.90;;
15246;SDS011;7726;48.820;9.248;2023-02-28T00:08:29;1.17;;;1.10;;
15246;SDS011;7726;48.820;9.248;2023-02-28T00:11:00;3.50;;;2.03;;
15246;SDS011;7726;48.820;9.248;2023-02-28T00:13:28;1.83;;;1.47;;
15246;SDS011;7726;48.820;9.248;2023-02-28T00:15:58;1.67;;;1.50;;
15246;SDS011;7726;48.820;9.248;2023-02-28T00:18:26;2.20;;;2.00;;
15246;SDS011;7726;48.820;9.248;2023-02-28T00:20:53;2.43;;;1.90;;
15246;SDS011;7726;48.820;9.248;2023-02-28T00:23:19;3.20;;;1.70;;
15246;SDS011;7726;48.820;9.248;2023-02-28T00:25:48;2.07;;;1.57;;
15246;SDS011;7726;48.820;9.248;2023-02-28T00:28:15;2.40;;;2.10;;
15246;SDS011;7726;48.820;9.248;2023-02-28T00:30:41;2.17;;;1.73;;
15246;SDS011;7726;48.820;9.248;2023-02-28T00:33:08;4.63;;;1.57;;
15246;SDS011;7726;48.820;9.248;2023-02-28T00:35:35;2.77;;;2.07;;
15246;SDS011;7726;48.820;9.248;2023-02-28T00:38:02;2.27;;;1.60;;
15246;SDS011;7726;48.820;9.248;2023-02-28T00:40:29;1.67;;;1.40;;
15246;SDS011;7726;48.820;9.248;2023-02-28T00:42:57;3.70;;;2.37;;
15246;SDS011;7726;48.820;9.248;2023-02-28T00:45:24;3.13;;;2.27;;
15246;SDS011;7726;48.820;9.248;2023-02-28T00:47:51;3.30;;;1.90;;
15246;SDS011;7726;48.820;9.248;2023-02-28T00:50:18;1.80;;;1.50;;
15246;SDS011;7726;48.820;9.248;2023-02-28T00:52:46;2.93;;;1.73;;
15246;SDS011;7726;48.820;9.248;2023-02-28T00:55:13;5.43;;;2.30;;
15246;SDS011;7726;48.820;9.248;2023-02-28T00:57:40;2.27;;;1.83;;
15246;SDS011;7726;48.820;9.248;2023-02-28T01:00:09;2.20;;;1.70;;
15246;SDS011;7726;48.820;9.248;2023-02-28T01:02:37;4.53;;;2.37;;
15246;SDS011;7726;48.820;9.248;2023-02-28T01:05:04;1.80;;;1.07;;
15246;SDS011;7726;48.820;9.248;2023-02-28T01:07:31;2.17;;;1.83;;
15246;SDS011;7726;48.820;9.248;2023-02-28T01:09:58;0.73;;;0.73;;
15246;SDS011;7726;48.820;9.248;2023-02-28T01:12:24;1.97;;;1.57;;
15246;SDS011;7726;48.820;9.248;2023-02-28T01:14:51;2.30;;;2.10;;
15246;SDS011;7726;48.820;9.248;2023-02-28T01:17:20;2.33;;;1.70;;
15246;SDS011;7726;48.820;9.248;2023-02-28T01:19:46;2.87;;;2.07;;
15246;SDS011;7726;48.820;9.248;2023-02-28T01:22:13;1.63;;;1.53;;
15246;SDS011;7726;48.820;9.248;2023-02-28T01:24:40;1.80;;;0.93;;
15246;SDS011;7726;48.820;9.248;2023-02-28T01:27:07;1.63;;;1.53;;
15246;SDS011;7726;48.820;9.248;2023-02-28T01:29:33;1.67;;;1.07;;
15246;SDS011;7726;48.820;9.248;2023-02-28T01:32:01;3.07;;;2.60;;
15246;SDS011;7726;48.820;9.248;2023-02-28T01:34:29;1.80;;;1.70;;
15246;SDS011;7726;48.820;9.248;2023-02-28T01:36:55;1.83;;;1.73;;
15246;SDS011;7726;48.820;9.248;2023-02-28T01:39:26;1.70;;;1.57;;
15246;SDS011;7726;48.820;9.248;2023-02-28T01:41:53;3.27;;;1.90;;
15246;SDS011;7726;48.820;9.248;2023-02-28T01:47:22;4.90;;;2.47;;
15246;SDS011;7726;48.820;9.248;2023-02-28T01:49:53;2.17;;;1.97;;
15246;SDS011;7726;48.820;9.248;2023-02-28T01:52:20;1.73;;;1.63;;
15246;SDS011;7726;48.820;9.248;2023-02-28T01:54:50;1.93;;;1.63;;
15246;SDS011;7726;48.820;9.248;2023-02-28T01:57:19;2.00;;;1.37;;
15246;SDS011;7726;48.820;9.248;2023-02-28T01:59:51;2.10;;;1.90;;
15246;SDS011;7726;48.820;9.248;2023-02-28T02:02:21;3.33;;;2.37;;
15246;SDS011;7726;48.820;9.248;2023-02-28T02:04:50;4.73;;;1.83;;
15246;SDS011;7726;48.820;9.248;2023-02-28T02:07:22;1.43;;;1.33;;
15246;SDS011;7726;48.820;9.248;2023-02-28T02:09:56;2.33;;;1.87;;
15246;SDS011;7726;48.820;9.248;2023-02-28T02:12:28;4.73;;;2.77;;
15246;SDS011;7726;48.820;9.248;2023-02-28T02:15:09;1.97;;;1.73;;
15246;SDS011;7726;48.820;9.248;2023-02-28T02:17:41;3.67;;;2.00;;
15246;SDS011;7726;48.820;9.248;2023-02-28T02:20:25;2.90;;;2.60;;
15246;SDS011;7726;48.820;9.248;2023-02-28T02:23:23;1.60;;;1.50;;
15246;SDS011;7726;48.820;9.248;2023-02-28T02:26:20;4.10;;;2.50;;
15246;SDS011;7726;48.820;9.248;2023-02-28T02:29:16;2.83;;;2.63;;
15246;SDS011;7726;48.820;9.248;2023-02-28T02:32:10;3.97;;;2.50;;
15246;SDS011;7726;48.820;9.248;2023-02-28T02:34:58;2.97;;;2.33;;
15246;SDS011;7726;48.820;9.248;2023-02-28T02:37:37;2.30;;;2.10;;
15246;SDS011;7726;48.820;9.248;2023-02-28T02:40:10;2.50;;;2.30;;
15246;SDS011;7726;48.820;9.248;2023-02-28T02:42:41;3.13;;;2.43;;
15246;SDS011;7726;48.820;9.248;2023-02-28T02:45:16;4.53;;;1.30;;
15246;SDS011;7726;48.820;9.248;2023-02-28T02:47:47;3.90;;;2.77;;
15246;SDS011;7726;48.820;9.248;2023-02-28T02:50:17;2.77;;;2.33;;
15246;SDS011;7726;48.820;9.248;2023-02-28T02:52:49;3.53;;;2.23;;
15246;SDS011;7726;48.820;9.248;2023-02-28T02:55:20;1.57;;;1.47;;
15246;SDS011;7726;48.820;9.248;2023-02-28T02:57:51;2.67;;;1.63;;
15246;SDS011;7726;48.820;9.248;2023-02-28T03:00:20;2.90;;;1.57;;
15246;SDS011;7726;48.820;9.248;2023-02-28T03:02:52;3.07;;;1.97;;
15246;SDS011;7726;48.820;9.248;2023-02-28T03:05:23;3.23;;;2.53;;
15246;SDS011;7726;48.820;9.248;2023-02-28T03:07:52;1.67;;;1.57;;
15246;SDS011;7726;48.820;9.248;2023-02-28T03:10:26;3.03;;;2.40;;
15246;SDS011;7726;48.820;9.248;2023-02-28T03:15:55;2.83;;;2.17;;
15246;SDS011;7726;48.820;9.248;2023-02-28T03:18:31;2.20;;;1.87;;
15246;SDS011;7726;48.820;9.248;2023-02-28T03:21:04;2.70;;;2.10;;
15246;SDS011;7726;48.820;9.248;2023-02-28T03:23:42;2.67;;;2.47;;
15246;SDS011;7726;48.820;9.248;2023-02-28T03:26:13;3.47;;;2.40;;
15246;SDS011;7726;48.820;9.248;2023-02-28T03:28:50;2.40;;;2.07;;
15246;SDS011;7726;48.820;9.248;2023-02-28T03:31:22;3.83;;;2.80;;
15246;SDS011;7726;48.820;9.248;2023-02-28T03:33:57;1.97;;;1.77;;
15246;SDS011;7726;48.820;9.248;2023-02-28T03:36:29;3.80;;;2.80;;
15246;SDS011;7726;48.820;9.248;2023-02-28T03:38:58;2.83;;;2.30;;
15246;SDS011;7726;48.820;9.248;2023-02-28T03:41:30;2.30;;;2.10;;
15246;SDS011;7726;48.820;9.248;2023-02-28T03:44:03;7.27;;;2.53;;
15246;SDS011;7726;48.820;9.248;2023-02-28T03:46:36;4.10;;;2.80;;
15246;SDS011;7726;48.820;9.248;2023-02-28T03:49:09;3.13;;;1.53;;
15246;SDS011;7726;48.820;9.248;2023-02-28T03:51:42;2.90;;;2.37;;
15246;SDS011;7726;48.820;9.248;2023-02-28T03:54:12;4.40;;;3.17;;
15246;SDS011;7726;48.820;9.248;2023-02-28T03:56:45;3.50;;;2.50;;
15246;SDS011;7726;48.820;9.248;2023-02-28T03:59:19;2.50;;;2.00;;
15246;SDS011;7726;48.820;9.248;2023-02-28T04:01:51;3.07;;;2.57;;
15246;SDS011;7726;48.820;9.248;2023-02-28T04:04:20;2.40;;;2.17;;
15246;SDS011;7726;48.820;9.248;2023-02-28T04:06:50;3.03;;;2.60;;
15246;SDS011;7726;48.820;9.248;2023-02-28T04:09:18;3.37;;;2.70;;
15246;SDS011;7726;48.820;9.248;2023-02-28T04:11:45;3.70;;;2.53;;
15246;SDS011;7726;48.820;9.248;2023-02-28T04:14:16;4.20;;;3.70;;
15246;SDS011;7726;48.820;9.248;2023-02-28T04:16:43;3.43;;;2.70;;
15246;SDS011;7726;48.820;9.248;2023-02-28T04:19:11;3.40;;;2.17;;
15246;SDS011;7726;48.820;9.248;2023-02-28T04:21:40;3.73;;;2.70;;
15246;SDS011;7726;48.820;9.248;2023-02-28T04:24:10;3.40;;;2.80;;
15246;SDS011;7726;48.820;9.248;2023-02-28T04:26:39;3.37;;;2.37;;
15246;SDS011;7726;48.820;9.248;2023-02-28T04:29:08;2.67;;;1.83;;
15246;SDS011;7726;48.820;9.248;2023-02-28T04:31:36;2.30;;;2.10;;
15246;SDS011;7726;48.820;9.248;2023-02-28T04:34:03;3.23;;;2.20;;
15246;SDS011;7726;48.820;9.248;2023-02-28T04:36:29;2.60;;;1.97;;
15246;SDS011;7726;48.820;9.248;2023-02-28T04:38:56;2.97;;;2.10;;
15246;SDS011;7726;48.820;9.248;2023-02-28T04:41:25;3.90;;;3.37;;
15246;SDS011;7726;48.820;9.248;2023-02-28T04:43:51;3.03;;;2.13;;
15246;SDS011;7726;48.820;9.248;2023-02-28T04:46:18;4.37;;;2.73;;
15246;SDS011;7726;48.820;9.248;2023-02-28T04:48:45;2.83;;;2.33;;
15246;SDS011;7726;48.820;9.248;2023-02-28T04:51:13;3.23;;;2.87;;
15246;SDS011;7726;48.820;9.248;2023-02-28T04:53:41;4.60;;;3.27;;
15246;SDS011;7726;48.820;9.248;2023-02-28T04:56:10;3.40;;;2.40;;
15246;SDS011;7726;48.820;9.248;2023-02-28T04:58:40;4.30;;;2.90;;
15246;SDS011;7726;48.820;9.248;2023-02-28T05:01:15;4.40;;;3.03;;
15246;SDS011;7726;48.820;9.248;2023-02-28T05:03:44;3.00;;;2.70;;
15246;SDS011;7726;48.820;9.248;2023-02-28T05:06:11;3.73;;;3.07;;
15246;SDS011;7726;48.820;9.248;2023-02-28T05:08:39;2.47;;;2.27;;
15246;SDS011;7726;48.820;9.248;2023-02-28T05:11:06;5.23;;;3.27;;
15246;SDS011;7726;48.820;9.248;2023-02-28T05:13:40;3.63;;;3.10;;
15246;SDS011;7726;48.820;9.248;2023-02-28T05:16:06;5.37;;;3.00;;
15246;SDS011;7726;48.820;9.248;2023-02-28T05:18:33;3.20;;;2.37;;
15246;SDS011;7726;48.820;9.248;2023-02-28T05:21:00;2.20;;;2.00;;
15246;SDS011;7726;48.820;9.248;2023-02-28T05:23:28;4.13;;;3.13;;
15246;SDS011;7726;48.820;9.248;2023-02-28T05:25:54;3.27;;;2.67;;
15246;SDS011;7726;48.820;9.248;2023-02-28T05:28:21;4.43;;;2.70;;
15246;SDS011;7726;48.820;9.248;2023-02-28T05:30:50;4.80;;;3.47;;
15246;SDS011;7726;48.820;9.248;2023-02-28T05:33:16;2.90;;;2.67;;
15246;SDS011;7726;48.820;9.248;2023-02-28T05:35:43;2.10;;;1.73;;
15246;SDS011;7726;48.820;9.248;2023-02-28T05:38:10;3.80;;;3.00;;
15246;SDS011;7726;48.820;9.248;2023-02-28T05:40:37;4.93;;;2.53;;
15246;SDS011;7726;48.820;9.248;2023-02-28T05:43:05;2.40;;;2.10;;
15246;SDS011;7726;48.820;9.248;2023-02-28T05:45:32;3.70;;;2.67;;
15246;SDS011;7726;48.820;9.248;2023-02-28T05:48:00;4.33;;;2.83;;
15246;SDS011;7726;48.820;9.248;2023-02-28T05:50:26;3.33;;;2.23;;
15246;SDS011;7726;48.820;9.248;2023-02-28T05:52:53;4.47;;;2.93;;
15246;SDS011;7726;48.820;9.248;2023-02-28T05:55:20;4.13;;;3.73;;
15246;SDS011;7726;48.820;9.248;2023-02-28T05:57:47;4.13;;;2.97;;
15246;SDS011;7726;48.820;9.248;2023-02-28T06:00:14;2.97;;;2.23;;
15246;SDS011;7726;48.820;9.248;2023-02-28T06:02:42;3.87;;;2.43;;
15246;SDS011;7726;48.820;9.248;2023-02-28T06:05:12;3.07;;;1.67;;
15246;SDS011;7726;48.820;9.248;2023-02-28T06:07:40;5.57;;;3.20;;
15246;SDS011;7726;48.820;9.248;2023-02-28T06:10:09;4.53;;;3.30;;
15246;SDS011;7726;48.820;9.248;2023-02-28T06:12:37;4.97;;;3.83;;
15246;SDS011;7726;48.820;9.248;2023-02-28T06:15:04;6.50;;;3.03;;
15246;SDS011;7726;48.820;9.248;2023-02-28T06:17:31;2.73;;;2.53;;
15246;SDS011;7726;48.820;9.248;2023-02-28T06:19:58;3.50;;;2.40;;
15246;SDS011;7726;48.820;9.248;2023-02-28T06:22:26;2.93;;;2.50;;
15246;SDS011;7726;48.820;9.248;2023-02-28T06:24:53;4.40;;;3.20;;
15246;SDS011;7726;48.820;9.248;2023-02-28T06:27:22;6.13;;;4.00;;
15246;SDS011;7726;48.820;9.248;2023-02-28T06:29:48;4.87;;;2.80;;
15246;SDS011;7726;48.820;9.248;2023-02-28T06:32:19;2.67;;;2.33;;
15246;SDS011;7726;48.820;9.248;2023-02-28T06:34:46;3.53;;;2.40;;
15246;SDS011;7726;48.820;9.248;2023-02-28T06:37:12;3.37;;;3.07;;
15246;SDS011;7726;48.820;9.248;2023-02-28T06:39:41;3.57;;;2.03;;
15246;SDS011;7726;48.820;9.248;2023-02-28T06:42:07;5.03;;;3.80;;
15246;SDS011;7726;48.820;9.248;2023-02-28T06:44:34;3.37;;;3.00;;
15246;SDS011;7726;48.820;9.248;2023-02-28T06:47:01;4.97;;;2.63;;
15246;SDS011;7726;48.820;9.248;2023-02-28T06:49:29;4.83;;;2.93;;
15246;SDS011;7726;48.820;9.248;2023-02-28T06:51:56;4.63;;;2.60;;
15246;SDS011;7726;48.820;9.248;2023-02-28T06:54:23;5.50;;;3.17;;
15246;SDS011;7726;48.820;9.248;2023-02-28T06:56:51;3.00;;;2.67;;
15246;SDS011;7726;48.820;9.248;2023-02-28T06:59:19;3.27;;;2.63;;
15246;SDS011;7726;48.820;9.248;2023-02-28T07:01:46;5.87;;;4.00;;
15246;SDS011;7726;48.820;9.248;2023-02-28T07:04:13;4.97;;;3.60;;
15246;SDS011;7726;48.820;9.248;2023-02-28T07:06:40;6.10;;;2.87;;
15246;SDS011;7726;48.820;9.248;2023-02-28T07:09:06;3.53;;;2.83;;
15246;SDS011;7726;48.820;9.248;2023-02-28T07:11:34;2.53;;;2.33;;
15246;SDS011;7726;48.820;9.248;2023-02-28T07:14:02;5.73;;;3.17;;
15246;SDS011;7726;48.820;9.248;2023-02-28T07:16:29;4.93;;;3.60;;
15246;SDS011;7726;48.820;9.248;2023-02-28T07:18:55;2.77;;;2.53;;
15246;SDS011;7726;48.820;9.248;2023-02-28T07:21:22;4.53;;;3.57;;
15246;SDS011;7726;48.820;9.248;2023-02-28T07:23:49;4.10;;;3.70;;
15246;SDS011;7726;48.820;9.248;2023-02-28T07:26:17;7.27;;;2.70;;
15246;SDS011;7726;48.820;9.248;2023-02-28T07:28:45;5.67;;;3.87;;
15246;SDS011;7726;48.820;9.248;2023-02-28T07:31:15;5.90;;;4.57;;
15246;SDS011;7726;48.820;9.248;2023-02-28T07:33:43;4.43;;;3.43;;
15246;SDS011;7726;48.820;9.248;2023-02-28T07:36:11;4.00;;;2.27;;
15246;SDS011;7726;48.820;9.248;2023-02-28T07:38:40;5.67;;;4.47;;
15246;SDS011;7726;48.820;9.248;2023-02-28T07:41:08;3.73;;;2.73;;
15246;SDS011;7726;48.820;9.248;2023-02-28T07:43:35;6.63;;;4.43;;
15246;SDS011;7726;48.820;9.248;2023-02-28T07:46:03;7.10;;;4.83;;
15246;SDS011;7726;48.820;9.248;2023-02-28T07:48:32;3.23;;;2.43;;
15246;SDS011;7726;48.820;9.248;2023-02-28T07:50:59;3.47;;;3.00;;
15246;SDS011;7726;48.820;9.248;2023-02-28T07:53:27;4.80;;;3.60;;
15246;SDS011;7726;48.820;9.248;2023-02-28T07:55:55;5.43;;;3.67;;
15246;SDS011;7726;48.820;9.248;2023-02-28T07:58:22;3.87;;;3.40;;
15246;SDS011;7726;48.820;9.248;2023-02-28T08:00:49;5.30;;;3.77;;
15246;SDS011;7726;48.820;9.248;2023-02-28T08:03:16;4.43;;;3.77;;
15246;SDS011;7726;48.820;9.248;2023-02-28T08:05:45;5.40;;;4.23;;
15246;SDS011;7726;48.820;9.248;2023-02-28T08:08:12;5.67;;;3.90;;
15246;SDS011;7726;48.820;9.248;2023-02-28T08:10:40;3.17;;;2.23;;
15246;SDS011;7726;48.820;9.248;2023-02-28T08:13:06;7.10;;;4.57;;
15246;SDS011;7726;48.820;9.248;2023-02-28T08:15:33;6.20;;;3.87;;
15246;SDS011;7726;48.820;9.248;2023-02-28T08:18:01;5.47;;;3.77;;
15246;SDS011;7726;48.820;9.248;2023-02-28T08:20:28;6.27;;;4.57;;
15246;SDS011;7726;48.820;9.248;2023-02-28T08:22:57;6.80;;;4.90;;
15246;SDS011;7726;48.820;9.248;2023-02-28T08:25:23;6.50;;;4.90;;
15246;SDS011;7726;48.820;9.248;2023-02-28T08:27:50;8.97;;;6.10;;
15246;SDS011;7726;48.820;9.248;2023-02-28T08:30:18;5.57;;;4.67;;
15246;SDS011;7726;48.820;9.248;2023-02-28T08:32:44;6.70;;;5.07;;
15246;SDS011;7726;48.820;9.248;2023-02-28T08:35:11;3.67;;;3.27;;
15246;SDS011;7726;48.820;9.248;2023-02-28T08:37:38;6.13;;;4.73;;
15246;SDS011;7726;48.820;9.248;2023-02-28T08:40:07;6.57;;;3.27;;
15246;SDS011;7726;48.820;9.248;2023-02-28T08:42:35;5.33;;;4.83;;
15246;SDS011;7726;48.820;9.248;2023-02-28T08:45:02;8.80;;;5.40;;
15246;SDS011;7726;48.820;9.248;2023-02-28T08:47:29;7.77;;;5.60;;
15246;SDS011;7726;48.820;9.248;2023-02-28T08:49:55;7.63;;;5.23;;
15246;SDS011;7726;48.820;9.248;2023-02-28T08:52:22;5.93;;;4.70;;
15246;SDS011;7726;48.820;9.248;2023-02-28T08:54:49;6.33;;;4.30;;
15246;SDS011;7726;48.820;9.248;2023-02-28T08:57:17;7.83;;;6.03;;
15246;SDS011;7726;48.820;9.248;2023-02-28T08:59:44;6.93;;;4.00;;
15246;SDS011;7726;48.820;9.248;2023-02-28T09:02:12;5.37;;;3.07;;
15246;SDS011;7726;48.820;9.248;2023-02-28T09:04:39;7.70;;;5.43;;
15246;SDS011;7726;48.820;9.248;2023-02-28T09:07:06;7.43;;;6.10;;
15246;SDS011;7726;48.820;9.248;2023-02-28T09:09:33;9.00;;;6.37;;
15246;SDS011;7726;48.820;9.248;2023-02-28T09:12:00;8.97;;;6.57;;
15246;SDS011;7726;48.820;9.248;2023-02-28T09:14:28;8.00;;;6.17;;
15246;SDS011;7726;48.820;9.248;2023-02-28T09:16:55;6.90;;;5.90;;
15246;SDS011;7726;48.820;9.248;2023-02-28T09:19:21;9.07;;;5.60;;
15246;SDS011;7726;48.820;9.248;2023-02-28T09:21:48;11.17;;;5.73;;
15246;SDS011;7726;48.820;9.248;2023-02-28T09:24:15;5.00;;;4.43;;
15246;SDS011;7726;48.820;9.248;2023-02-28T09:26:43;8.23;;;6.30;;
15246;SDS011;7726;48.820;9.248;2023-02-28T09:29:09;6.77;;;5.67;;
15246;SDS011;7726;48.820;9.248;2023-02-28T09:31:38;8.67;;;5.90;;
15246;SDS011;7726;48.820;9.248;2023-02-28T09:34:05;7.47;;;5.57;;
15246;SDS011;7726;48.820;9.248;2023-02-28T09:36:31;6.80;;;5.10;;
15246;SDS011;7726;48.820;9.248;2023-02-28T09:38:59;9.30;;;5.53;;
15246;SDS011;7726;48.820;9.248;2023-02-28T09:41:26;10.07;;;6.63;;
15246;SDS011;7726;48.820;9.248;2023-02-28T09:44:01;8.53;;;6.53;;
15246;SDS011;7726;48.820;9.248;2023-02-28T09:46:32;7.60;;;6.17;;
15246;SDS011;7726;48.820;9.248;2023-02-28T09:49:05;9.20;;;5.87;;
15246;SDS011;7726;48.820;9.248;2023-02-28T09:51:40;9.60;;;6.73;;
15246;SDS011;7726;48.820;9.248;2023-02-28T09:54:14;9.10;;;6.37;;
15246;SDS011;7726;48.820;9.248;2023-02-28T09:56:44;8.70;;;5.63;;
15246;SDS011;7726;48.820;9.248;2023-02-28T09:59:18;8.30;;;6.10;;
15246;SDS011;7726;48.820;9.248;2023-02-28T10:02:00;9.37;;;6.10;;
15246;SDS011;7726;48.820;9.248;2023-02-28T10:04:42;7.57;;;5.80;;
15246;SDS011;7726;48.820;9.248;2023-02-28T10:07:20;8.70;;;7.10;;
15246;SDS011;7726;48.820;9.248;2023-02-28T10:09:52;7.40;;;5.13;;
15246;SDS011;7726;48.820;9.248;2023-02-28T10:12:22;7.10;;;5.80;;
15246;SDS011;7726;48.820;9.248;2023-02-28T10:14:51;8.40;;;5.07;;
15246;SDS011;7726;48.820;9.248;2023-02-28T10:17:20;9.03;;;6.73;;
15246;SDS011;7726;48.820;9.248;2023-02-28T10:19:54;8.47;;;6.50;;
15246;SDS011;7726;48.820;9.248;2023-02-28T10:22:27;8.73;;;6.73;;
15246;SDS011;7726;48.820;9.248;2023-02-28T10:25:00;8.57;;;6.47;;
15246;SDS011;7726;48.820;9.248;2023-02-28T10:27:29;8.50;;;6.87;;
15246;SDS011;7726;48.820;9.248;2023-02-28T10:29:57;6.83;;;5.97;;
15246;SDS011;7726;48.820;9.248;2023-02-28T10:32:25;9.07;;;6.93;;
15246;SDS011;7726;48.820;9.248;2023-02-28T10:34:57;7.80;;;5.83;;
15246;SDS011;7726;48.820;9.248;2023-02-28T10:37:25;8.73;;;6.50;;
15246;SDS011;7726;48.820;9.248;2023-02-28T10:39:52;8.00;;;6.27;;
15246;SDS011;7726;48.820;9.248;2023-02-28T10:42:23;9.00;;;6.80;;
15246;SDS011;7726;48.820;9.248;2023-02-28T10:45:05;9.13;;;6.33;;
15246;SDS011;7726;48.820;9.248;2023-02-28T10:47:33;9.20;;;6.67;;
15246;SDS011;7726;48.820;9.248;2023-02-28T10:50:04;9.73;;;7.10;;
15246;SDS011;7726;48.820;9.248;2023-02-28T10:52:32;6.67;;;5.43;;
15246;SDS011;7726;48.820;9.248;2023-02-28T10:55:15;8.60;;;6.03;;
15246;SDS011;7726;48.820;9.248;2023-02-28T10:57:48;8.10;;;6.03;;
15246;SDS011;7726;48.820;9.248;2023-02-28T11:00:15;9.13;;;6.63;;
15246;SDS011;7726;48.820;9.248;2023-02-28T11:02:44;7.40;;;6.53;;
15246;SDS011;7726;48.820;9.248;2023-02-28T11:05:26;9.73;;;7.20;;
15246;SDS011;7726;48.820;9.248;2023-02-28T11:07:55;9.37;;;7.07;;
15246;SDS011;7726;48.820;9.248;2023-02-28T11:10:26;8.37;;;7.10;;
15246;SDS011;7726;48.820;9.248;2023-02-28T11:12:57;13.17;;;7.37;;
15246;SDS011;7726;48.820;9.248;2023-02-28T11:15:25;8.10;;;6.57;;
15246;SDS011;7726;48.820;9.248;2023-02-28T11:17:53;8.80;;;7.10;;
15246;SDS011;7726;48.820;9.248;2023-02-28T11:20:22;9.80;;;7.03;;
15246;SDS011;7726;48.820;9.248;2023-02-28T11:22:52;7.60;;;6.47;;
15246;SDS011;7726;48.820;9.248;2023-02-28T11:25:21;8.30;;;6.83;;
15246;SDS011;7726;48.820;9.248;2023-02-28T11:27:52;10.73;;;7.03;;
15246;SDS011;7726;48.820;9.248;2023-02-28T11:30:27;10.10;;;7.33;;
15246;SDS011;7726;48.820;9.248;2023-02-28T11:32:56;8.43;;;6.83;;
15246;SDS011;7726;48.820;9.248;2023-02-28T11:35:24;8.93;;;7.03;;
15246;SDS011;7726;48.820;9.248;2023-02-28T11:37:56;7.70;;;6.47;;
15246;SDS011;7726;48.820;9.248;2023-02-28T11:40:26;10.27;;;7.80;;
15246;SDS011;7726;48.820;9.248;2023-02-28T11:43:01;7.93;;;7.13;;
15246;SDS011;7726;48.820;9.248;2023-02-28T11:45:44;7.30;;;6.37;;
15246;SDS011;7726;48.820;9.248;2023-02-28T11:48:20;7.90;;;6.53;;
15246;SDS011;7726;48.820;9.248;2023-02-28T11:50:54;8.23;;;7.00;;
15246;SDS011;7726;48.820;9.248;2023-02-28T11:53:38;8.20;;;6.10;;
15246;SDS011;7726;48.820;9.248;2023-02-28T11:56:17;8.20;;;6.80;;
15246;SDS011;7726;48.820;9.248;2023-02-28T11:58:52;9.30;;;6.90;;
15246;SDS011;7726;48.820;9.248;2023-02-28T12:01:31;7.97;;;6.70;;
15246;SDS011;7726;48.820;9.248;2023-02-28T12:04:13;8.60;;;6.87;;
15246;SDS011;7726;48.820;9.248;2023-02-28T12:06:52;10.50;;;7.37;;
15246;SDS011;7726;48.820;9.248;2023-02-28T12:09:34;7.80;;;6.47;;
15246;SDS011;7726;48.820;9.248;2023-02-28T12:12:12;8.83;;;7.00;;
15246;SDS011;7726;48.820;9.248;2023-02-28T12:15:03;10.60;;;7.43;;
15246;SDS011;7726;48.820;9.248;2023-02-28T12:17:45;8.67;;;7.23;;
15246;SDS011;7726;48.820;9.248;2023-02-28T12:20:25;9.03;;;7.53;;
15246;SDS011;7726;48.820;9.248;2023-02-28T12:23:00;7.50;;;6.57;;
15246;SDS011;7726;48.820;9.248;2023-02-28T12:25:50;8.23;;;7.33;;
15246;SDS011;7726;48.820;9.248;2023-02-28T12:28:29;7.97;;;6.40;;
15246;SDS011;7726;48.820;9.248;2023-02-28T12:31:00;9.87;;;6.20;;
15246;SDS011;7726;48.820;9.248;2023-02-28T12:33:32;7.13;;;5.30;;
15246;SDS011;7726;48.820;9.248;2023-02-28T12:36:03;7.70;;;5.37;;
15246;SDS011;7726;48.820;9.248;2023-02-28T12:38:37;8.67;;;6.30;;
15246;SDS011;7726;48.820;9.248;2023-02-28T12:41:11;5.37;;;4.47;;
15246;SDS011;7726;48.820;9.248;2023-02-28T12:43:41;6.30;;;5.53;;
15246;SDS011;7726;48.820;9.248;2023-02-28T12:46:11;5.83;;;4.60;;
15246;SDS011;7726;48.820;9.248;2023-02-28T12:48:43;8.50;;;6.67;;
15246;SDS011;7726;48.820;9.248;2023-02-28T12:51:12;7.47;;;5.93;;
15246;SDS011;7726;48.820;9.248;2023-02-28T12:53:46;8.50;;;6.47;;
15246;SDS011;7726;48.820;9.248;2023-02-28T12:56:30;6.97;;;6.17;;
15246;SDS011;7726;48.820;9.248;2023-02-28T12:59:04;5.00;;;3.63;;
15246;SDS011;7726;48.820;9.248;2023-02-28T13:02:00;8.67;;;5.87;;
15246;SDS011;7726;48.820;9.248;2023-02-28T13:05:01;7.43;;;6.63;;
15246;SDS011;7726;48.820;9.248;2023-02-28T13:10:50;5.13;;;4.60;;
15246;SDS011;7726;48.820;9.248;2023-02-28T13:13:21;7.90;;;6.90;;
15246;SDS011;7726;48.820;9.248;2023-02-28T13:18:38;7.13;;;6.10;;
15246;SDS011;7726;48.820;9.248;2023-02-28T13:21:09;8.57;;;6.30;;
15246;SDS011;7726;48.820;9.248;2023-02-28T13:23:59;7.23;;;5.90;;
15246;SDS011;7726;48.820;9.248;2023-02-28T13:29:34;9.90;;;6.80;;
15246;SDS011;7726;48.820;9.248;2023-02-28T13:44:12;7.00;;;5.90;;
15246;SDS011;7726;48.820;9.248;2023-02-28T13:49:46;8.60;;;6.27;;
15246;SDS011;7726;48.820;9.248;2023-02-28T13:52:15;7.10;;;6.40;;
15246;SDS011;7726;48.820;9.248;2023-02-28T13:54:51;6.10;;;4.90;;
15246;SDS011;7726;48.820;9.248;2023-02-28T13:57:30;6.57;;;5.73;;
15246;SDS011;7726;48.820;9.248;2023-02-28T14:00:14;7.20;;;6.07;;
15246;SDS011;7726;48.820;9.248;2023-02-28T14:02:51;8.67;;;5.60;;
15246;SDS011;7726;48.820;9.248;2023-02-28T14:05:41;6.50;;;5.43;;
15246;SDS011;7726;48.820;9.248;2023-02-28T14:08:12;7.10;;;5.97;;
15246;SDS011;7726;48.820;9.248;2023-02-28T14:10:44;6.53;;;5.50;;
15246;SDS011;7726;48.820;9.248;2023-02-28T14:13:14;8.03;;;5.77;;
15246;SDS011;7726;48.820;9.248;2023-02-28T14:16:09;8.77;;;6.20;;
15246;SDS011;7726;48.820;9.248;2023-02-28T14:18:40;7.13;;;6.20;;
15246;SDS011;7726;48.820;9.248;2023-02-28T14:21:16;8.07;;;6.67;;
15246;SDS011;7726;48.820;9.248;2023-02-28T14:24:01;6.73;;;6.03;;
15246;SDS011;7726;48.820;9.248;2023-02-28T14:26:53;8.83;;;5.60;;
15246;SDS011;7726;48.820;9.248;2023-02-28T14:29:43;8.43;;;6.43;;
15246;SDS011;7726;48.820;9.248;2023-02-28T14:32:33;8.13;;;6.20;;
15246;SDS011;7726;48.820;9.248;2023-02-28T14:35:09;7.13;;;6.03;;
15246;SDS011;7726;48.820;9.248;2023-02-28T14:37:46;7.33;;;5.63;;
15246;SDS011;7726;48.820;9.248;2023-02-28T14:40:14;7.17;;;6.43;;
15246;SDS011;7726;48.820;9.248;2023-02-28T14:42:46;8.27;;;6.67;;
15246;SDS011;7726;48.820;9.248;2023-02-28T14:45:18;7.20;;;6.13;;
15246;SDS011;7726;48.820;9.248;2023-02-28T14:47:45;8.43;;;6.50;;
15246;SDS011;7726;48.820;9.248;2023-02-28T14:50:17;7.13;;;5.90;;
15246;SDS011;7726;48.820;9.248;2023-02-28T14:52:46;8.63;;;6.23;;
15246;SDS011;7726;48.820;9.248;2023-02-28T14:55:16;8.40;;;6.33;;
15246;SDS011;7726;48.820;9.248;2023-02-28T14:57:50;7.03;;;6.33;;
15246;SDS011;7726;48.820;9.248;2023-02-28T15:00:21;10.13;;;6.43;;
15246;SDS011;7726;48.820;9.248;2023-02-28T15:02:49;8.17;;;4.70;;
15246;SDS011;7726;48.820;9.248;2023-02-28T15:05:20;7.70;;;6.20;;
15246;SDS011;7726;48.820;9.248;2023-02-28T15:08:00;6.57;;;5.83;;
15246;SDS011;7726;48.820;9.248;2023-02-28T15:10:29;6.13;;;4.97;;
15246;SDS011;7726;48.820;9.248;2023-02-28T15:12:56;7.73;;;6.40;;
15246;SDS011;7726;48.820;9.248;2023-02-28T15:15:26;8.83;;;7.23;;
15246;SDS011;7726;48.820;9.248;2023-02-28T15:17:59;6.67;;;5.60;;
15246;SDS011;7726;48.820;9.248;2023-02-28T15:20:28;6.47;;;5.83;;
15246;SDS011;7726;48.820;9.248;2023-02-28T15:22:57;6.93;;;5.33;;
15246;SDS011;7726;48.820;9.248;2023-02-28T15:25:24;8.23;;;6.30;;
15246;SDS011;7726;48.820;9.248;2023-02-28T15:27:52;6.87;;;5.87;;
15246;SDS011;7726;48.820;9.248;2023-02-28T15:30:23;8.60;;;6.63;;
15246;SDS011;7726;48.820;9.248;2023-02-28T15:33:03;7.67;;;6.53;;
15246;SDS011;7726;48.820;9.248;2023-02-28T15:35:33;7.17;;;5.97;;
15246;SDS011;7726;48.820;9.248;2023-02-28T15:38:03;6.53;;;5.03;;
15246;SDS011;7726;48.820;9.248;2023-02-28T15:40:41;8.57;;;6.33;;
15246;SDS011;7726;48.820;9.248;2023-02-28T15:43:13;6.83;;;6.13;;
15246;SDS011;7726;48.820;9.248;2023-02-28T15:45:43;7.77;;;6.47;;
15246;SDS011;7726;48.820;9.248;2023-02-28T15:48:18;9.87;;;7.60;;
15246;SDS011;7726;48.820;9.248;2023-02-28T15:50:49;9.27;;;6.83;;
15246;SDS011;7726;48.820;9.248;2023-02-28T15:53:20;10.63;;;6.73;;